createdAt,value
2018-12-24T00:32:07.335Z,24.21
2018-12-24T00:33:07.396Z,24.38
2018-12-24T00:34:07.281Z,24.30
2018-12-24T00:35:07.276Z,24.40
2018-12-24T00:36:07.344Z,24.30
2018-12-24T00:37:07.202Z,24.40
2018-12-24T00:38:07.193Z,24.49
2018-12-24T00:39:07.988Z,24.68
2018-12-24T00:40:07.116Z,24.38
2018-12-24T00:41:07.121Z,24.29
2018-12-24T00:42:15.659Z,24.58
2018-12-24T00:43:07.044Z,24.40
2018-12-24T00:45:30.052Z,24.02
2018-12-24T00:46:30.935Z,24.30
2018-12-24T00:47:30.504Z,24.67
2018-12-24T00:48:30.136Z,24.40
2018-12-24T00:49:29.934Z,24.10
2018-12-24T00:50:29.910Z,23.83
2018-12-24T00:51:29.878Z,23.83
2018-12-24T00:52:29.910Z,23.92
2018-12-24T00:53:29.900Z,24.11
2018-12-24T00:54:30.062Z,23.73
2018-12-24T00:55:30.798Z,23.83
2018-12-24T00:56:29.769Z,24.02
2018-12-24T00:57:29.888Z,24.02
2018-12-24T00:58:29.704Z,24.02
2018-12-24T00:59:29.683Z,23.73
2018-12-24T01:00:29.657Z,23.73
2018-12-24T01:01:29.770Z,23.73
2018-12-24T01:02:29.782Z,23.92
2018-12-24T01:03:29.601Z,23.72
2018-12-24T01:04:29.602Z,23.64
2018-12-24T01:05:29.535Z,23.83
2018-12-24T01:06:29.537Z,24.01
2018-12-24T01:07:29.486Z,23.92
2018-12-24T01:08:29.515Z,23.83
2018-12-24T01:09:29.503Z,23.64
2018-12-24T01:10:29.412Z,23.64
2018-12-24T01:11:29.472Z,23.34
2018-12-24T01:12:29.404Z,23.15
2018-12-24T01:13:29.474Z,23.24
2018-12-24T01:14:29.371Z,23.15
2018-12-24T01:15:29.645Z,23.16
2018-12-24T01:16:29.267Z,23.24
2018-12-24T01:17:29.260Z,22.88
2018-12-24T01:18:29.232Z,22.97
2018-12-24T01:19:29.444Z,22.69
2018-12-24T01:20:29.187Z,22.69
2018-12-24T01:21:29.177Z,22.97
2018-12-24T01:22:29.120Z,22.50
2018-12-24T01:23:29.342Z,22.69
2018-12-24T01:24:29.077Z,22.30
2018-12-24T01:25:29.070Z,22.40
2018-12-24T01:26:29.076Z,22.12
2018-12-24T01:27:29.019Z,22.30
2018-12-24T01:28:29.006Z,22.31
2018-12-24T01:29:28.966Z,22.31
2018-12-24T01:30:30.084Z,22.31
2018-12-24T01:31:28.954Z,22.50
2018-12-24T01:32:28.887Z,22.21
2018-12-24T01:33:28.876Z,22.31
2018-12-24T01:34:28.850Z,22.40
2018-12-24T01:35:28.811Z,22.21
2018-12-24T01:36:28.789Z,22.21
2018-12-24T01:37:28.776Z,22.31
2018-12-24T01:38:28.759Z,22.50
2018-12-24T01:39:29.523Z,22.21
2018-12-24T01:40:28.708Z,22.31
2018-12-24T01:41:28.775Z,22.12
2018-12-24T01:42:33.458Z,22.21
2018-12-24T01:43:28.620Z,22.21
2018-12-24T01:44:28.640Z,22.12
2018-12-24T01:45:28.664Z,22.02
2018-12-24T01:46:28.550Z,22.21
2018-12-24T01:47:28.543Z,21.93
2018-12-24T01:48:28.508Z,22.02
2018-12-24T01:49:28.486Z,21.93
2018-12-24T01:50:28.461Z,21.74
2018-12-24T01:51:28.515Z,22.02
2018-12-24T01:52:28.421Z,21.93
2018-12-24T01:53:28.393Z,21.74
2018-12-24T01:54:28.526Z,21.74
2018-12-24T01:55:28.344Z,21.93
2018-12-24T01:56:28.335Z,21.64
2018-12-24T01:57:28.287Z,21.93
2018-12-24T01:58:28.300Z,21.74
2018-12-24T01:59:28.276Z,21.64
2018-12-24T02:00:28.221Z,21.45
2018-12-24T02:01:28.196Z,21.45
2018-12-24T02:02:28.167Z,21.26
2018-12-24T02:03:28.155Z,21.74
2018-12-24T02:04:28.165Z,21.17
2018-12-24T02:05:28.128Z,21.74
2018-12-24T02:06:28.091Z,21.36
2018-12-24T02:07:28.079Z,21.36
2018-12-24T02:08:28.031Z,21.36
2018-12-24T02:09:28.026Z,21.26
2018-12-24T02:10:28.001Z,21.26
2018-12-24T02:11:27.984Z,21.17
2018-12-24T02:12:27.935Z,21.45
2018-12-24T02:13:27.909Z,21.08
2018-12-24T02:14:27.884Z,21.17
2018-12-24T02:15:27.879Z,21.17
2018-12-24T02:16:27.874Z,21.08
2018-12-24T02:17:27.817Z,21.08
2018-12-24T02:18:27.786Z,21.08
2018-12-24T02:19:27.786Z,20.98
2018-12-24T02:20:27.763Z,21.08
2018-12-24T02:21:27.727Z,21.36
2018-12-24T02:22:27.695Z,21.17
2018-12-24T02:23:27.673Z,21.26
2018-12-24T02:24:27.644Z,21.17
2018-12-24T02:25:27.625Z,21.17
2018-12-24T02:26:27.600Z,20.69
2018-12-24T02:27:27.571Z,20.98
2018-12-24T02:28:27.603Z,20.89
2018-12-24T02:29:27.537Z,20.98
2018-12-24T02:30:27.507Z,20.89
2018-12-24T02:31:27.502Z,20.98
2018-12-24T02:32:27.511Z,20.98
2018-12-24T02:33:27.462Z,20.69
2018-12-24T02:34:27.427Z,20.89
2018-12-24T02:35:27.436Z,20.98
2018-12-24T02:36:27.365Z,20.89
2018-12-24T02:37:27.346Z,20.89
2018-12-24T02:38:27.332Z,20.79
2018-12-24T02:39:27.310Z,20.89
2018-12-24T02:40:27.268Z,20.50
2018-12-24T02:41:27.268Z,20.60
2018-12-24T02:42:27.227Z,20.79
2018-12-24T02:43:27.201Z,20.79
2018-12-24T02:44:27.175Z,20.69
2018-12-24T02:45:27.156Z,20.79
2018-12-24T02:46:27.135Z,20.50
2018-12-24T02:47:27.102Z,20.79
2018-12-24T02:48:27.110Z,20.79
2018-12-24T02:49:27.089Z,20.79
2018-12-24T02:50:27.036Z,20.22
2018-12-24T02:51:27.005Z,20.31
2018-12-24T02:52:27.010Z,20.31
2018-12-24T02:53:26.981Z,20.31
2018-12-24T02:54:26.951Z,20.31
2018-12-24T02:55:26.920Z,20.41
2018-12-24T02:56:26.887Z,20.41
2018-12-24T02:57:26.867Z,20.31
2018-12-24T02:58:26.838Z,20.22
2018-12-24T02:59:26.829Z,20.60
2018-12-24T03:00:26.835Z,20.41
2018-12-24T03:01:26.782Z,20.60
2018-12-24T03:02:26.759Z,20.79
2018-12-24T03:03:26.737Z,20.31
2018-12-24T03:04:26.699Z,20.69
2018-12-24T03:05:26.692Z,20.41
2018-12-24T03:06:26.654Z,20.50
2018-12-24T03:07:26.628Z,20.60
2018-12-24T03:08:26.603Z,20.60
2018-12-24T03:09:26.609Z,20.60
2018-12-24T03:10:26.579Z,20.22
2018-12-24T03:11:26.574Z,20.69
2018-12-24T03:12:26.548Z,20.60
2018-12-24T03:13:26.510Z,20.50
2018-12-24T03:14:26.488Z,20.60
2018-12-24T03:15:26.475Z,20.69
2018-12-24T03:16:26.425Z,20.60
2018-12-24T03:17:26.394Z,20.41
2018-12-24T03:18:26.380Z,20.50
2018-12-24T03:19:26.346Z,19.93
2018-12-24T03:20:26.373Z,20.22
2018-12-24T03:21:26.300Z,19.74
2018-12-24T03:22:26.374Z,19.93
2018-12-24T03:23:26.250Z,19.74
2018-12-24T03:24:26.274Z,19.74
2018-12-24T03:25:26.214Z,19.74
2018-12-24T03:26:26.211Z,20.31
2018-12-24T03:27:26.175Z,19.74
2018-12-24T03:28:26.154Z,19.84
2018-12-24T03:29:26.133Z,19.93
2018-12-24T03:30:26.094Z,19.93
2018-12-24T03:31:26.072Z,20.03
2018-12-24T03:32:26.053Z,19.93
2018-12-24T03:33:26.018Z,19.93
2018-12-24T03:34:26.019Z,20.03
2018-12-24T03:35:25.976Z,20.03
2018-12-24T03:36:25.982Z,20.12
2018-12-24T03:37:25.959Z,20.12
2018-12-24T03:38:25.943Z,20.03
2018-12-24T03:39:25.916Z,20.12
2018-12-24T03:40:25.894Z,20.03
2018-12-24T03:41:25.885Z,20.22
2018-12-24T03:42:25.840Z,20.03
2018-12-24T03:43:25.792Z,20.12
2018-12-24T03:44:25.792Z,20.12
2018-12-24T03:45:25.733Z,19.93
2018-12-24T03:46:25.705Z,20.03
2018-12-24T03:47:25.681Z,20.03
2018-12-24T03:48:25.673Z,20.03
2018-12-24T03:49:25.642Z,20.03
2018-12-24T03:50:25.633Z,20.12
2018-12-24T03:51:25.594Z,20.22
2018-12-24T03:52:25.568Z,20.03
2018-12-24T03:53:25.549Z,20.03
2018-12-24T03:54:25.526Z,20.12
2018-12-24T03:55:25.507Z,20.12
2018-12-24T03:56:25.473Z,19.93
2018-12-24T03:57:25.452Z,19.93
2018-12-24T03:58:25.444Z,19.93
2018-12-24T03:59:25.408Z,20.22
2018-12-24T04:00:25.379Z,20.22
2018-12-24T04:01:25.364Z,19.93
2018-12-24T04:02:25.333Z,19.93
2018-12-24T04:03:25.308Z,19.93
2018-12-24T04:04:25.289Z,19.93
2018-12-24T04:05:25.268Z,19.93
2018-12-24T04:06:25.235Z,19.84
2018-12-24T04:07:25.242Z,20.03
2018-12-24T04:08:25.216Z,19.93
2018-12-24T04:09:25.181Z,19.93
2018-12-24T04:10:25.146Z,20.03
2018-12-24T04:11:25.146Z,19.93
2018-12-24T04:12:25.104Z,20.12
2018-12-24T04:13:25.078Z,19.84
2018-12-24T04:14:25.053Z,20.12
2018-12-24T04:15:25.061Z,20.12
2018-12-24T04:16:25.003Z,19.93
2018-12-24T04:17:24.981Z,20.03
2018-12-24T04:18:24.956Z,20.03
2018-12-24T04:19:24.932Z,20.12
2018-12-24T04:20:24.914Z,20.12
2018-12-24T04:21:24.901Z,19.93
2018-12-24T04:22:24.860Z,20.12
2018-12-24T04:23:24.853Z,19.93
2018-12-24T04:24:24.832Z,19.93
2018-12-24T04:25:24.815Z,20.03
2018-12-24T04:26:24.766Z,20.22
2018-12-24T04:27:24.743Z,20.12
2018-12-24T04:28:24.785Z,19.93
2018-12-24T04:29:24.736Z,19.93
2018-12-24T04:30:24.682Z,19.93
2018-12-24T04:31:24.660Z,19.93
2018-12-24T04:32:24.626Z,20.12
2018-12-24T04:33:24.614Z,19.93
2018-12-24T04:34:24.610Z,19.93
2018-12-24T04:35:24.559Z,19.93
2018-12-24T04:36:24.533Z,20.03
2018-12-24T04:37:24.508Z,19.56
2018-12-24T04:38:24.532Z,19.74
2018-12-24T04:39:24.465Z,19.84
2018-12-24T04:40:24.446Z,19.74
2018-12-24T04:41:24.473Z,19.74
2018-12-24T04:42:24.406Z,19.93
2018-12-24T04:43:32.011Z,19.74
2018-12-24T04:44:24.348Z,19.74
2018-12-24T04:45:24.357Z,19.93
2018-12-24T04:46:24.314Z,19.65
2018-12-24T04:47:24.271Z,19.74
2018-12-24T04:48:24.258Z,19.74
2018-12-24T04:49:24.221Z,19.93
2018-12-24T04:50:24.220Z,19.93
2018-12-24T04:51:24.179Z,20.03
2018-12-24T04:52:24.175Z,20.03
2018-12-24T04:53:24.133Z,19.74
2018-12-24T04:54:24.112Z,19.74
2018-12-24T04:55:24.092Z,20.03
2018-12-24T04:56:24.068Z,19.74
2018-12-24T04:57:24.064Z,19.74
2018-12-24T04:58:24.046Z,19.93
2018-12-24T04:59:23.994Z,20.03
2018-12-24T05:00:24.015Z,19.93
2018-12-24T05:01:23.942Z,19.93
2018-12-24T05:02:23.927Z,19.93
2018-12-24T05:03:23.919Z,20.03
2018-12-24T05:04:23.932Z,19.84
2018-12-24T05:05:23.844Z,19.74
2018-12-24T05:06:23.876Z,19.84
2018-12-24T05:07:23.806Z,20.03
2018-12-24T05:08:23.779Z,20.03
2018-12-24T05:09:23.789Z,19.74
2018-12-24T05:10:23.741Z,20.12
2018-12-24T05:11:23.705Z,19.84
2018-12-24T05:12:23.705Z,20.12
2018-12-24T05:13:23.663Z,19.74
2018-12-24T05:14:23.648Z,20.12
2018-12-24T05:15:23.645Z,19.93
2018-12-24T05:16:23.617Z,20.12
2018-12-24T05:17:23.565Z,20.22
2018-12-24T05:18:23.588Z,20.12
2018-12-24T05:19:23.581Z,20.03
2018-12-24T05:20:23.498Z,20.12
2018-12-24T05:21:23.499Z,20.03
2018-12-24T05:22:23.469Z,20.03
2018-12-24T05:23:23.433Z,19.93
2018-12-24T05:24:23.399Z,20.41
2018-12-24T05:25:23.377Z,20.60
2018-12-24T05:26:23.354Z,20.41
2018-12-24T05:27:23.348Z,20.79
2018-12-24T05:28:23.310Z,20.69
2018-12-24T05:29:23.320Z,20.22
2018-12-24T05:30:23.263Z,20.79
2018-12-24T05:31:23.258Z,20.60
2018-12-24T05:32:23.234Z,20.60
2018-12-24T05:33:23.203Z,20.60
2018-12-24T05:34:23.191Z,20.50
2018-12-24T05:35:23.135Z,20.50
2018-12-24T05:36:23.125Z,20.60
2018-12-24T05:37:23.111Z,20.79
2018-12-24T05:38:23.067Z,20.31
2018-12-24T05:39:23.057Z,20.22
2018-12-24T05:40:23.015Z,20.31
2018-12-24T05:41:22.995Z,20.22
2018-12-24T05:42:23.005Z,20.79
2018-12-24T05:43:22.970Z,20.89
2018-12-24T05:44:22.939Z,20.89
2018-12-24T05:45:22.924Z,20.98
2018-12-24T05:46:22.915Z,20.98
2018-12-24T05:47:22.855Z,21.08
2018-12-24T05:48:22.860Z,21.26
2018-12-24T05:49:22.806Z,21.17
2018-12-24T05:50:22.794Z,21.08
2018-12-24T05:51:22.765Z,21.08
2018-12-24T05:52:22.732Z,20.89
2018-12-24T05:53:22.736Z,21.17
2018-12-24T05:54:22.744Z,21.74
2018-12-24T05:55:22.663Z,21.83
2018-12-24T05:56:22.649Z,21.93
2018-12-24T05:57:22.630Z,21.93
2018-12-24T05:58:22.601Z,22.02
2018-12-24T05:59:22.609Z,21.93
2018-12-24T06:00:22.544Z,22.02
2018-12-24T06:01:22.545Z,22.12
2018-12-24T06:02:22.526Z,22.50
2018-12-24T06:03:22.510Z,22.60
2018-12-24T06:04:22.454Z,23.07
2018-12-24T06:05:22.444Z,22.78
2018-12-24T06:06:22.401Z,22.78
2018-12-24T06:07:22.419Z,22.88
2018-12-24T06:08:22.355Z,23.07
2018-12-24T06:09:22.332Z,23.25
2018-12-24T06:10:22.306Z,23.16
2018-12-24T06:11:22.285Z,23.25
2018-12-24T06:12:22.276Z,23.83
2018-12-24T06:13:22.239Z,23.64
2018-12-24T06:14:22.217Z,23.64
2018-12-24T06:15:22.201Z,23.92
2018-12-24T06:16:22.256Z,23.83
2018-12-24T06:17:22.195Z,24.40
2018-12-24T06:18:22.125Z,24.30
2018-12-24T06:19:22.114Z,23.92
2018-12-24T06:20:22.077Z,24.02
2018-12-24T06:21:22.048Z,24.30
2018-12-24T06:22:22.051Z,24.11
2018-12-24T06:23:22.005Z,24.58
2018-12-24T06:24:21.997Z,24.21
2018-12-24T06:25:21.978Z,24.58
2018-12-24T06:26:21.938Z,23.92
2018-12-24T06:27:21.906Z,24.40
2018-12-24T06:28:21.897Z,24.40
2018-12-24T06:29:21.862Z,23.92
2018-12-24T06:30:21.855Z,24.21
2018-12-24T06:31:21.849Z,24.58
2018-12-24T06:32:21.828Z,24.40
2018-12-24T06:33:21.769Z,25.06
2018-12-24T06:34:21.738Z,24.77
2018-12-24T06:35:21.721Z,24.87
2018-12-24T06:36:21.690Z,24.96
2018-12-24T06:37:21.672Z,24.58
2018-12-24T06:38:21.699Z,24.87
2018-12-24T06:39:21.620Z,25.25
2018-12-24T06:40:21.636Z,25.15
2018-12-24T06:41:21.590Z,25.15
2018-12-24T06:42:21.552Z,25.15
2018-12-24T06:43:21.539Z,25.63
2018-12-24T06:44:21.508Z,25.44
2018-12-24T06:45:21.496Z,25.44
2018-12-24T06:46:21.464Z,25.35
2018-12-24T06:47:21.432Z,25.73
2018-12-24T06:48:21.418Z,26.01
2018-12-24T06:49:21.391Z,26.01
2018-12-24T06:50:21.383Z,26.01
2018-12-24T06:51:21.354Z,25.92
2018-12-24T06:52:21.346Z,26.20
2018-12-24T06:53:21.299Z,26.48
2018-12-24T06:54:21.273Z,26.86
2018-12-24T06:55:21.263Z,27.06
2018-12-24T06:56:21.289Z,27.25
2018-12-24T06:57:21.234Z,26.67
2018-12-24T06:58:21.180Z,26.86
2018-12-24T06:59:21.155Z,27.25
2018-12-24T07:00:21.159Z,27.44
2018-12-24T07:01:21.101Z,27.34
2018-12-24T07:02:21.138Z,27.34
2018-12-24T07:03:21.097Z,27.72
2018-12-24T07:05:54.204Z,28.77
2018-12-24T07:06:44.121Z,28.29
2018-12-24T07:07:44.010Z,28.38
2018-12-24T07:08:44.037Z,28.57
2018-12-24T07:09:44.031Z,28.10
2018-12-24T07:10:43.975Z,28.38
2018-12-24T07:11:43.933Z,28.77
2018-12-24T07:12:43.916Z,28.57
2018-12-24T07:13:43.866Z,28.57
2018-12-24T07:14:43.854Z,28.19
2018-12-24T07:15:43.835Z,28.57
2018-12-24T07:16:43.829Z,28.38
2018-12-24T07:17:43.775Z,29.24
2018-12-24T07:18:43.871Z,29.62
2018-12-24T07:19:43.731Z,29.62
2018-12-24T07:20:43.707Z,29.81
2018-12-24T07:21:43.677Z,29.71
2018-12-24T07:22:43.686Z,29.71
2018-12-24T07:23:43.684Z,29.71
2018-12-24T07:24:43.606Z,29.62
2018-12-24T07:25:43.609Z,29.71
2018-12-24T07:26:43.554Z,29.62
2018-12-24T07:27:43.563Z,29.71
2018-12-24T07:28:43.513Z,29.81
2018-12-24T07:29:43.497Z,29.43
2018-12-24T07:30:43.467Z,28.67
2018-12-24T07:31:43.445Z,29.52
2018-12-24T07:32:43.433Z,29.62
2018-12-24T07:33:43.403Z,29.71
2018-12-24T07:34:43.383Z,29.90
2018-12-24T07:35:43.370Z,30.94
2018-12-24T07:36:43.346Z,30.76
2018-12-24T07:37:43.295Z,31.33
2018-12-24T07:38:43.306Z,31.13
2018-12-24T07:39:43.264Z,31.71
2018-12-24T07:40:43.289Z,31.71
2018-12-24T07:41:43.237Z,31.80
2018-12-24T07:42:43.199Z,31.90
2018-12-24T07:43:43.163Z,32.28
2018-12-24T07:44:43.133Z,32.37
2018-12-24T07:45:43.121Z,31.99
2018-12-24T07:46:43.096Z,32.46
2018-12-24T07:47:43.069Z,32.56
2018-12-24T07:48:43.074Z,32.75
2018-12-24T07:49:43.025Z,33.04
2018-12-24T07:50:42.986Z,32.75
2018-12-24T07:51:42.982Z,32.75
2018-12-24T07:52:42.948Z,32.94
2018-12-24T07:53:42.924Z,32.94
2018-12-24T07:54:42.896Z,32.94
2018-12-24T07:55:42.867Z,32.75
2018-12-24T07:56:42.847Z,32.09
2018-12-24T07:57:42.848Z,31.99
2018-12-24T07:58:42.820Z,32.18
2018-12-24T07:59:42.816Z,32.18
2018-12-24T08:00:42.757Z,32.37
2018-12-24T08:01:42.752Z,32.46
2018-12-24T08:02:42.748Z,32.56
2018-12-24T08:03:42.700Z,31.99
2018-12-24T08:04:42.693Z,31.61
2018-12-24T08:05:42.654Z,31.13
2018-12-24T08:06:42.611Z,31.33
2018-12-24T08:07:42.590Z,31.04
2018-12-24T08:08:42.585Z,31.13
2018-12-24T08:09:42.551Z,31.42
2018-12-24T08:10:42.523Z,31.23
2018-12-24T08:11:42.528Z,31.61
2018-12-24T08:12:42.491Z,32.28
2018-12-24T08:13:42.473Z,32.56
2018-12-24T08:14:42.459Z,32.94
2018-12-24T08:15:42.448Z,33.04
2018-12-24T08:16:42.371Z,33.61
2018-12-24T08:17:42.381Z,33.80
2018-12-24T08:18:42.360Z,34.08
2018-12-24T08:19:42.308Z,34.17
2018-12-24T08:20:42.325Z,34.75
2018-12-24T08:23:15.375Z,35.79
2018-12-24T08:24:05.289Z,35.98
2018-12-24T08:25:05.264Z,36.26
2018-12-24T08:26:05.240Z,36.17
2018-12-24T08:27:05.211Z,36.74
2018-12-24T08:28:05.178Z,36.93
2018-12-24T08:29:05.162Z,37.02
2018-12-24T08:30:05.139Z,36.07
2018-12-24T08:31:05.102Z,35.88
2018-12-24T08:32:05.120Z,35.98
2018-12-24T08:33:05.116Z,35.69
2018-12-24T08:34:05.051Z,35.79
2018-12-24T08:35:05.025Z,35.88
2018-12-24T08:36:05.062Z,35.88
2018-12-24T08:37:04.978Z,35.98
2018-12-24T08:38:04.953Z,36.83
2018-12-24T08:39:04.918Z,37.02
2018-12-24T08:40:04.888Z,37.30
2018-12-24T08:41:04.861Z,37.30
2018-12-24T08:42:04.840Z,37.21
2018-12-24T08:43:04.820Z,36.74
2018-12-24T08:44:04.800Z,36.65
2018-12-24T08:45:04.794Z,36.65
2018-12-24T08:46:04.753Z,36.74
2018-12-24T08:47:04.759Z,36.26
2018-12-24T08:48:04.705Z,35.98
2018-12-24T08:49:04.710Z,35.60
2018-12-24T08:50:04.658Z,35.69
2018-12-24T08:51:04.633Z,36.83
2018-12-24T08:52:04.634Z,37.30
2018-12-24T08:53:04.584Z,37.30
2018-12-24T08:54:04.561Z,37.30
2018-12-24T08:55:04.563Z,37.78
2018-12-24T08:56:04.529Z,38.45
2018-12-24T08:57:04.492Z,38.54
2018-12-24T08:58:04.465Z,38.45
2018-12-24T08:59:04.475Z,38.45
2018-12-24T09:00:04.441Z,38.64
2018-12-24T09:01:04.393Z,39.21
2018-12-24T09:02:04.374Z,39.30
2018-12-24T09:03:04.348Z,39.11
2018-12-24T09:04:04.371Z,39.11
2018-12-24T09:05:04.302Z,39.21
2018-12-24T09:06:04.315Z,39.49
2018-12-24T09:07:04.257Z,40.63
2018-12-24T09:08:04.225Z,42.53
2018-12-24T09:09:04.203Z,44.90
2018-12-24T09:10:04.217Z,45.66
2018-12-24T09:11:04.164Z,46.99
2018-12-24T09:12:04.135Z,47.37
2018-12-24T09:13:04.110Z,47.37
2018-12-24T09:14:04.091Z,46.80
2018-12-24T09:15:04.071Z,46.80
2018-12-24T09:16:04.072Z,49.82
2018-12-24T09:17:04.011Z,50.67
2018-12-24T09:18:04.012Z,52.09
2018-12-24T09:19:03.977Z,51.52
2018-12-24T09:20:03.989Z,51.52
2018-12-24T09:21:03.952Z,51.72
2018-12-24T09:22:03.912Z,51.43
2018-12-24T09:23:03.920Z,51.62
2018-12-24T09:24:03.874Z,56.36
2018-12-24T09:25:03.831Z,58.26
2018-12-24T09:26:03.817Z,58.45
2018-12-24T09:27:03.880Z,58.92
2018-12-24T09:28:03.774Z,58.83
2018-12-24T09:29:03.731Z,57.40
2018-12-24T09:30:03.712Z,57.59
2018-12-24T09:31:03.691Z,57.98
2018-12-24T09:32:03.709Z,61.49
2018-12-24T09:33:03.656Z,64.90
2018-12-24T09:34:03.607Z,66.99
2018-12-24T09:35:03.586Z,66.52
2018-12-24T09:36:03.604Z,65.28
2018-12-24T09:37:03.564Z,65.85
2018-12-24T09:38:03.524Z,67.46
2018-12-24T09:39:03.498Z,68.89
2018-12-24T09:40:03.508Z,68.51
2018-12-24T09:41:03.438Z,70.59
2018-12-24T09:42:03.416Z,71.73
2018-12-24T09:43:03.409Z,76.67
2018-12-24T09:44:03.389Z,77.05
2018-12-24T09:45:03.417Z,75.34
2018-12-24T09:46:03.355Z,79.04
2018-12-24T09:47:03.300Z,77.52
2018-12-24T09:48:03.281Z,76.76
2018-12-24T09:49:03.246Z,78.00
2018-12-24T09:50:03.248Z,78.95
2018-12-24T09:51:03.205Z,80.94
2018-12-24T09:52:03.179Z,80.94
2018-12-24T09:53:03.163Z,80.65
2018-12-24T09:54:03.128Z,79.23
2018-12-24T09:55:03.120Z,80.08
2018-12-24T09:56:03.077Z,80.18
2018-12-24T09:57:03.059Z,83.40
2018-12-24T09:58:03.032Z,83.78
2018-12-24T09:59:03.008Z,82.93
2018-12-24T10:00:03.010Z,82.08
2018-12-24T10:01:02.993Z,84.74
2018-12-24T10:02:02.944Z,86.63
2018-12-24T10:03:02.950Z,90.71
2018-12-24T10:04:03.206Z,88.53
2018-12-24T10:05:02.914Z,86.63
2018-12-24T10:06:02.850Z,83.03
2018-12-24T10:07:02.832Z,83.69
2018-12-24T10:08:02.792Z,85.40
2018-12-24T10:09:02.767Z,86.63
2018-12-24T10:10:02.753Z,89.00
2018-12-24T10:11:02.801Z,91.09
2018-12-24T10:12:02.687Z,90.71
2018-12-24T10:13:02.686Z,91.94
2018-12-24T10:14:02.670Z,92.04
2018-12-24T10:15:08.041Z,89.76
2018-12-24T10:16:02.624Z,93.56
2018-12-24T10:17:02.575Z,92.52
2018-12-24T10:18:02.633Z,92.52
2018-12-24T10:19:02.577Z,92.90
2018-12-24T10:20:02.519Z,91.85
2018-12-24T10:21:02.523Z,89.86
2018-12-24T10:22:02.468Z,89.76
2018-12-24T10:23:02.422Z,88.91
2018-12-24T10:24:02.408Z,90.85
2018-12-24T10:25:02.406Z,90.85
2018-12-24T10:26:02.386Z,92.52
2018-12-24T10:27:02.325Z,93.18
2018-12-24T10:28:02.307Z,93.37
2018-12-24T10:29:02.280Z,92.75
2018-12-24T10:30:02.264Z,94.18
2018-12-24T10:31:02.232Z,94.37
2018-12-24T10:32:02.226Z,94.89
2018-12-24T10:33:02.184Z,94.18
2018-12-24T10:34:02.186Z,93.46
2018-12-24T10:35:02.139Z,93.89
2018-12-24T10:36:02.113Z,96.45
2018-12-24T10:37:02.125Z,94.37
2018-12-24T10:38:02.064Z,95.70
2018-12-24T10:39:02.051Z,95.60
2018-12-24T10:40:02.106Z,97.31
2018-12-24T10:41:01.987Z,97.60
2018-12-24T10:42:02.004Z,97.12
2018-12-24T10:43:01.949Z,97.69
2018-12-24T10:44:01.915Z,96.36
2018-12-24T10:45:01.896Z,95.89
2018-12-24T10:46:01.872Z,95.03
2018-12-24T10:47:01.844Z,94.37
2018-12-24T10:48:01.825Z,95.79
2018-12-24T10:49:01.801Z,95.79
2018-12-24T10:50:01.779Z,96.45
2018-12-24T10:51:01.752Z,97.45
2018-12-24T10:52:01.746Z,97.69
2018-12-24T10:53:01.701Z,97.78
2018-12-24T10:54:01.693Z,96.26
2018-12-24T10:55:01.658Z,95.55
2018-12-24T10:56:01.663Z,98.97
2018-12-24T10:57:01.627Z,99.99
2018-12-24T10:58:01.608Z,97.36
2018-12-24T10:59:01.570Z,96.88
2018-12-24T11:00:01.566Z,98.02
2018-12-24T11:01:01.516Z,97.26
2018-12-24T11:02:01.495Z,97.26
2018-12-24T11:03:01.463Z,98.16
2018-12-24T11:04:01.434Z,97.02
2018-12-24T11:05:01.421Z,96.55
2018-12-24T11:06:01.390Z,96.12
2018-12-24T11:07:01.394Z,95.03
2018-12-24T11:08:01.353Z,93.80
2018-12-24T11:09:01.365Z,94.56
2018-12-24T11:10:01.323Z,94.18
2018-12-24T11:11:01.304Z,95.03
2018-12-24T11:12:01.274Z,96.93
2018-12-24T11:13:01.220Z,96.17
2018-12-24T11:14:01.225Z,96.36
2018-12-24T11:15:01.259Z,96.26
2018-12-24T11:16:01.155Z,95.41
2018-12-24T11:17:01.137Z,96.45
2018-12-24T11:18:01.143Z,97.17
2018-12-24T11:19:01.084Z,99.87
2018-12-24T11:20:01.057Z,99.99
2018-12-24T11:21:01.040Z,99.58
2018-12-24T11:22:01.034Z,99.07
2018-12-24T11:23:01.140Z,99.21
2018-12-24T11:24:00.971Z,98.21
2018-12-24T11:25:00.947Z,99.99
2018-12-24T11:26:00.922Z,99.99
2018-12-24T11:27:00.905Z,99.99
2018-12-24T11:28:00.865Z,99.99
2018-12-24T11:29:00.850Z,99.99
2018-12-24T11:30:00.831Z,99.99
2018-12-24T11:31:00.819Z,99.99
2018-12-24T11:32:01.423Z,99.99
2018-12-24T11:33:00.761Z,99.99
2018-12-24T11:34:00.731Z,99.99
2018-12-24T11:35:00.705Z,99.99
2018-12-24T11:36:00.677Z,99.99
2018-12-24T11:37:00.688Z,99.99
2018-12-24T11:38:00.641Z,99.99
2018-12-24T11:39:00.615Z,99.99
2018-12-24T11:40:00.599Z,99.99
2018-12-24T11:41:00.563Z,99.99
2018-12-24T11:42:00.542Z,99.99
2018-12-24T11:43:00.859Z,99.99
2018-12-24T11:44:00.520Z,99.99
2018-12-24T11:45:00.557Z,99.99
2018-12-24T11:46:00.460Z,99.99
2018-12-24T11:47:00.522Z,99.99
2018-12-24T11:48:00.407Z,99.99
2018-12-24T11:49:00.372Z,99.99
2018-12-24T11:50:00.365Z,99.99
2018-12-24T11:51:00.372Z,99.99
2018-12-24T11:52:00.310Z,99.99
2018-12-24T11:53:00.292Z,99.99
2018-12-24T11:54:00.289Z,99.99
2018-12-24T11:55:00.261Z,99.99
2018-12-24T11:56:00.211Z,99.99
2018-12-24T11:57:00.193Z,99.99
2018-12-24T11:58:00.164Z,99.99
2018-12-24T11:59:00.252Z,99.99
2018-12-24T12:00:00.129Z,99.99
2018-12-24T12:01:00.208Z,99.99
2018-12-24T12:02:00.086Z,99.99
2018-12-24T12:03:00.044Z,99.99
2018-12-24T12:04:00.053Z,99.99
2018-12-24T12:05:00.031Z,99.99
2018-12-24T12:06:00.083Z,99.99
2018-12-24T12:07:00.044Z,99.99
2018-12-24T12:07:59.978Z,99.99
2018-12-24T12:08:59.930Z,99.99
2018-12-24T12:09:59.911Z,99.99
2018-12-24T12:11:01.617Z,99.99
2018-12-24T12:11:59.838Z,99.99
2018-12-24T12:12:59.819Z,99.99
2018-12-24T12:13:59.785Z,99.99
2018-12-24T12:14:59.800Z,99.99
2018-12-24T12:15:59.747Z,99.99
2018-12-24T12:16:59.753Z,99.99
2018-12-24T12:17:59.721Z,99.99
2018-12-24T12:18:59.672Z,99.99
2018-12-24T12:19:59.646Z,99.99
2018-12-24T12:20:59.643Z,99.99
2018-12-24T12:21:59.618Z,99.99
2018-12-24T12:22:59.573Z,99.99
2018-12-24T12:24:03.284Z,99.99
2018-12-24T12:24:59.535Z,99.99
2018-12-24T12:25:59.513Z,99.99
2018-12-24T12:26:59.481Z,99.99
2018-12-24T12:27:59.472Z,99.99
2018-12-24T12:28:59.443Z,99.99
2018-12-24T12:29:59.464Z,99.99
2018-12-24T12:30:59.392Z,99.99
2018-12-24T12:31:59.387Z,99.99
2018-12-24T12:32:59.359Z,99.99
2018-12-24T12:33:59.323Z,99.99
2018-12-24T12:34:59.325Z,99.99
2018-12-24T12:35:59.318Z,99.99
2018-12-24T12:36:59.279Z,99.99
2018-12-24T12:37:59.236Z,99.99
2018-12-24T12:38:59.211Z,99.99
2018-12-24T12:39:59.199Z,99.99
2018-12-24T12:40:59.162Z,99.99
2018-12-24T12:41:59.156Z,99.99
2018-12-24T12:42:59.114Z,99.99
2018-12-24T12:43:59.095Z,99.99
2018-12-24T12:44:59.068Z,99.99
2018-12-24T12:45:59.057Z,99.99
2018-12-24T12:46:59.092Z,99.99
2018-12-24T12:47:59.053Z,99.99
2018-12-24T12:48:59.042Z,99.99
2018-12-24T12:49:58.948Z,99.99
2018-12-24T12:50:58.926Z,99.99
2018-12-24T12:51:58.911Z,99.99
2018-12-24T12:52:58.951Z,99.99
2018-12-24T12:53:58.879Z,99.99
2018-12-24T12:54:58.860Z,99.99
2018-12-24T12:55:58.823Z,99.99
2018-12-24T12:56:58.798Z,99.99
2018-12-24T12:57:58.768Z,99.99
2018-12-24T12:58:58.784Z,99.99
2018-12-24T12:59:58.726Z,99.99
2018-12-24T13:00:58.701Z,99.99
2018-12-24T13:01:58.798Z,99.99
2018-12-24T13:02:58.673Z,99.99
2018-12-24T13:03:58.660Z,99.99
2018-12-24T13:04:58.638Z,99.99
2018-12-24T13:05:58.663Z,99.99
2018-12-24T13:06:58.567Z,99.99
2018-12-24T13:07:58.547Z,99.99
2018-12-24T13:08:58.532Z,99.99
2018-12-24T13:09:58.516Z,99.99
2018-12-24T13:10:58.459Z,99.99
2018-12-24T13:11:58.501Z,99.99
2018-12-24T13:12:58.422Z,99.99
2018-12-24T13:13:58.395Z,99.99
2018-12-24T13:14:58.378Z,99.99
2018-12-24T13:15:59.709Z,99.99
2018-12-24T13:16:58.347Z,99.99
2018-12-24T13:17:58.304Z,99.99
2018-12-24T13:18:58.360Z,99.99
2018-12-24T13:19:58.274Z,99.99
2018-12-24T13:20:58.249Z,99.99
2018-12-24T13:22:04.311Z,99.99
2018-12-24T13:22:58.178Z,99.99
2018-12-24T13:23:58.161Z,99.99
2018-12-24T13:24:58.139Z,99.99
2018-12-24T13:25:58.147Z,99.99
2018-12-24T13:26:58.124Z,99.99
2018-12-24T13:27:58.065Z,99.99